createdAt,value
2022-11-16T00:03:36.689Z,17.00
2022-11-16T00:08:45.205Z,17.50
2022-11-16T00:13:47.204Z,21.80
2022-11-16T00:18:49.174Z,17.33
2022-11-16T00:23:51.320Z,15.15
2022-11-16T00:28:54.309Z,18.92
2022-11-16T00:33:56.207Z,16.55
2022-11-16T00:38:58.096Z,17.00
2022-11-16T00:44:00.075Z,17.80
2022-11-16T00:49:02.439Z,21.08
2022-11-16T00:54:06.667Z,22.00
2022-11-16T00:59:10.433Z,18.10
2022-11-16T01:04:12.513Z,19.35
2022-11-16T01:09:14.493Z,23.77
2022-11-16T01:14:16.467Z,18.45
2022-11-16T01:19:18.756Z,17.73
2022-11-16T01:24:21.089Z,18.65
2022-11-16T01:29:26.577Z,16.88
2022-11-16T01:34:32.046Z,19.50
2022-11-16T01:39:40.682Z,20.02
2022-11-16T01:44:43.393Z,19.63
2022-11-16T01:49:53.968Z,18.73
2022-11-16T01:55:01.468Z,20.42
2022-11-16T02:00:12.766Z,21.45
2022-11-16T02:06:01.628Z,15.68
2022-11-16T02:11:27.072Z,16.88
2022-11-16T02:16:38.346Z,16.60
2022-11-16T02:22:29.614Z,14.23
2022-11-16T02:27:59.603Z,14.15
2022-11-16T02:33:13.458Z,15.48
2022-11-16T02:38:28.789Z,18.08
2022-11-16T02:43:46.957Z,13.23
2022-11-16T02:48:53.601Z,16.27
2022-11-16T02:54:12.795Z,20.47
2022-11-16T02:59:17.853Z,15.40
2022-11-16T03:04:30.398Z,17.95
2022-11-16T03:09:37.133Z,19.20
2022-11-16T03:14:44.305Z,19.08
2022-11-16T03:19:57.829Z,18.15
2022-11-16T03:24:59.877Z,17.95
2022-11-16T03:30:09.079Z,14.93
2022-11-16T03:35:20.275Z,13.05
2022-11-16T03:40:25.697Z,22.08
2022-11-16T03:45:30.138Z,18.35
2022-11-16T03:50:32.415Z,12.20
2022-11-16T03:55:36.512Z,12.90
2022-11-16T04:00:38.700Z,16.25
2022-11-16T04:06:03.191Z,13.55
2022-11-16T04:11:24.325Z,11.93
2022-11-16T04:16:45.694Z,14.43
2022-11-16T04:22:25.740Z,11.48
2022-11-16T04:27:48.826Z,12.60
2022-11-16T04:33:09.865Z,22.65
2022-11-16T04:38:12.887Z,13.38
2022-11-16T04:43:15.019Z,8.65
2022-11-16T04:48:20.127Z,8.52
2022-11-16T04:53:27.169Z,11.03
2022-11-16T04:58:58.244Z,8.43
2022-11-16T05:04:00.814Z,10.13
2022-11-16T05:09:02.978Z,11.75
2022-11-16T05:14:06.282Z,18.77
2022-11-16T05:19:26.902Z,15.20
2022-11-16T05:24:34.968Z,20.00
2022-11-16T05:29:39.138Z,16.30
2022-11-16T05:34:41.377Z,12.07
2022-11-16T05:39:44.607Z,12.95
2022-11-16T05:44:47.233Z,10.45
2022-11-16T05:49:51.431Z,8.98
2022-11-16T05:54:54.060Z,9.93
2022-11-16T05:59:56.055Z,9.73
2022-11-16T06:04:58.138Z,5.50
2022-11-16T06:10:00.358Z,11.70
2022-11-16T06:15:02.650Z,15.25
2022-11-16T06:20:05.421Z,9.90
2022-11-16T06:25:07.919Z,9.13
2022-11-16T06:30:14.517Z,8.68
2022-11-16T06:35:17.019Z,8.82
2022-11-16T06:40:19.761Z,5.68
2022-11-16T06:45:21.872Z,15.90
2022-11-16T06:50:28.504Z,7.00
2022-11-16T06:55:30.580Z,9.23
2022-11-16T07:00:32.875Z,6.78
2022-11-16T07:05:39.976Z,8.55
2022-11-16T07:10:45.571Z,10.32
2022-11-16T07:15:47.673Z,6.53
2022-11-16T07:20:49.700Z,10.45
2022-11-16T07:25:51.771Z,11.40
2022-11-16T07:31:07.576Z,5.45
2022-11-16T07:36:13.304Z,5.53
2022-11-16T07:41:17.853Z,11.25
2022-11-16T07:46:46.177Z,597.22
2022-11-16T07:51:50.089Z,7.20
2022-11-16T07:57:06.440Z,7.88
2022-11-16T08:02:10.796Z,9.20
2022-11-16T08:07:16.617Z,13.20
2022-11-16T08:12:26.187Z,11.95
2022-11-16T08:17:29.444Z,13.93
2022-11-16T08:22:33.077Z,12.63
2022-11-16T08:27:36.270Z,7.85
2022-11-16T08:32:38.704Z,15.70
2022-11-16T08:37:41.227Z,18.30
2022-11-16T08:42:44.435Z,13.32
2022-11-16T08:47:47.469Z,11.52
2022-11-16T08:52:49.633Z,18.10
2022-11-16T08:57:52.335Z,13.38
2022-11-16T09:02:54.432Z,16.13
2022-11-16T09:07:56.510Z,19.73
2022-11-16T09:12:58.402Z,11.07
2022-11-16T09:18:00.272Z,8.27
2022-11-16T09:23:02.195Z,9.75
2022-11-16T09:28:04.383Z,16.73
2022-11-16T09:33:06.274Z,10.32
2022-11-16T09:38:10.084Z,11.98
2022-11-16T09:43:18.025Z,15.20
2022-11-16T09:48:21.470Z,16.73
2022-11-16T09:53:34.095Z,9.65
2022-11-16T09:58:42.853Z,19.20
2022-11-16T10:03:50.384Z,12.65
2022-11-16T10:14:07.941Z,7.30
2022-11-16T10:19:15.346Z,10.30
2022-11-16T10:24:27.748Z,4.10
2022-11-16T10:29:38.795Z,8.15
2022-11-16T10:34:46.609Z,10.07
2022-11-16T10:39:51.421Z,8.73
2022-11-16T10:45:02.628Z,8.57
2022-11-16T10:50:38.169Z,5.72
2022-11-16T10:55:40.145Z,8.52
2022-11-16T11:00:47.233Z,13.55
2022-11-16T11:05:53.684Z,18.58
2022-11-16T11:11:41.286Z,4.13
2022-11-16T11:16:43.204Z,6.05
2022-11-16T11:21:45.326Z,24.25
2022-11-16T11:26:53.782Z,8.25
2022-11-16T11:32:04.362Z,7.00
2022-11-16T11:37:13.198Z,11.75
2022-11-16T11:42:15.239Z,10.07
2022-11-16T11:53:12.791Z,776.83
2022-11-16T11:58:19.423Z,771.05
2022-11-16T12:04:18.961Z,16.53
2022-11-16T12:09:45.909Z,6.70
2022-11-16T12:15:00.370Z,12.38
2022-11-16T12:20:16.340Z,13.77
2022-11-16T12:25:43.189Z,9.35
2022-11-16T12:31:23.822Z,10.10
2022-11-16T12:36:35.111Z,194.45
2022-11-16T12:42:02.929Z,773.40
2022-11-16T12:47:21.156Z,776.25
2022-11-16T12:52:41.204Z,783.75
2022-11-16T12:58:05.440Z,6.63
2022-11-16T13:03:20.673Z,424.05
2022-11-16T13:08:37.526Z,11.98
2022-11-16T13:13:41.937Z,10.43
2022-11-16T13:18:44.564Z,17.42
2022-11-16T13:24:12.707Z,13.52
2022-11-16T13:29:24.597Z,13.25
2022-11-16T13:34:32.995Z,12.23
2022-11-16T13:39:59.922Z,9.18
2022-11-16T13:45:16.624Z,14.18
2022-11-16T13:50:37.091Z,14.90
2022-11-16T13:55:43.915Z,14.23
2022-11-16T14:01:07.457Z,8.55
2022-11-16T14:06:24.617Z,16.33
2022-11-16T14:11:31.153Z,8.75
2022-11-16T14:16:43.083Z,396.63
2022-11-16T14:21:55.343Z,409.92
2022-11-16T14:27:17.051Z,776.95
2022-11-16T14:32:29.364Z,351.25
2022-11-16T14:37:40.499Z,761.80
2022-11-16T14:43:16.117Z,753.67
2022-11-16T14:48:21.729Z,761.55
2022-11-16T14:53:26.421Z,753.90
2022-11-16T14:58:28.864Z,775.92
2022-11-16T15:03:52.563Z,772.90
2022-11-16T15:09:04.964Z,764.05
2022-11-16T15:14:07.380Z,771.05
2022-11-16T15:19:12.631Z,637.10
2022-11-16T15:24:30.342Z,647.60
2022-11-16T15:29:33.687Z,652.35
2022-11-16T15:34:39.342Z,630.47
2022-11-16T15:39:41.949Z,653.50
2022-11-16T15:44:44.607Z,759.53
2022-11-16T15:49:49.814Z,763.33
2022-11-16T15:55:03.918Z,771.95
2022-11-16T16:00:06.264Z,762.28
2022-11-16T16:05:38.774Z,26.83
2022-11-16T16:10:40.732Z,16.55
2022-11-16T16:15:42.727Z,12.43
2022-11-16T16:20:48.586Z,6.10
2022-11-16T16:25:50.900Z,17.88
2022-11-16T16:30:52.844Z,764.92
2022-11-16T16:35:54.767Z,17.52
2022-11-16T16:41:02.587Z,763.05
2022-11-16T16:46:04.725Z,689.25
2022-11-16T16:51:06.834Z,712.30
2022-11-16T16:56:16.784Z,685.15
2022-11-16T17:01:18.760Z,761.58
2022-11-16T17:06:20.862Z,705.67
2022-11-16T17:11:23.182Z,732.08
2022-11-16T17:16:25.371Z,758.97
2022-11-16T17:21:27.443Z,756.20
2022-11-16T17:26:29.667Z,731.85
2022-11-16T17:31:31.600Z,691.08
2022-11-16T17:36:33.506Z,757.78
2022-11-16T17:41:35.457Z,739.17
2022-11-16T17:46:37.416Z,709.17
2022-11-16T17:51:39.457Z,694.33
2022-11-16T17:56:41.367Z,680.55
2022-11-16T18:01:43.337Z,689.63
2022-11-16T18:06:45.256Z,630.78
2022-11-16T18:11:47.261Z,624.53
2022-11-16T18:16:49.158Z,745.05
2022-11-16T18:21:51.093Z,754.45
2022-11-16T18:26:53.001Z,750.95
2022-11-16T18:31:54.918Z,758.63
2022-11-16T18:36:56.852Z,767.30
2022-11-16T18:42:01.138Z,756.53
2022-11-16T18:47:03.174Z,685.38
2022-11-16T18:52:05.109Z,691.58
2022-11-16T18:57:07.041Z,742.15
2022-11-16T19:02:11.748Z,758.20
2022-11-16T19:07:14.182Z,753.33
2022-11-16T19:12:16.106Z,750.30
2022-11-16T19:17:20.397Z,757.58
2022-11-16T19:22:22.335Z,751.85
2022-11-16T19:27:24.279Z,746.97
2022-11-16T19:32:26.284Z,713.45
2022-11-16T19:37:28.154Z,603.63
2022-11-16T19:42:30.116Z,644.20
2022-11-16T19:47:32.034Z,616.60
2022-11-16T19:52:34.027Z,600.83
2022-11-16T19:57:35.980Z,600.50
2022-11-16T20:02:38.752Z,570.03
2022-11-16T20:07:40.785Z,661.38
2022-11-16T20:12:43.542Z,571.42
2022-11-16T20:17:45.538Z,564.28
2022-11-16T20:22:48.791Z,551.60
2022-11-16T20:27:50.747Z,580.97
2022-11-16T20:32:52.703Z,531.50
2022-11-16T20:37:54.615Z,569.25
2022-11-16T20:42:59.169Z,613.53
2022-11-16T20:48:01.245Z,582.25
2022-11-16T20:53:03.271Z,535.88
2022-11-16T20:58:05.629Z,619.85
2022-11-16T21:03:08.066Z,589.83
2022-11-16T21:08:11.499Z,581.13
2022-11-16T21:13:34.606Z,568.50
2022-11-16T21:18:37.587Z,551.22
2022-11-16T21:23:43.156Z,543.45
2022-11-16T21:28:45.513Z,537.13
2022-11-16T21:33:48.185Z,556.53
2022-11-16T21:38:50.815Z,590.70
2022-11-16T21:43:53.055Z,547.88
2022-11-16T21:48:56.656Z,543.47
2022-11-16T21:53:58.973Z,537.85
2022-11-16T21:59:00.897Z,547.30
2022-11-16T22:04:21.335Z,700.42
2022-11-16T22:09:23.626Z,615.55
2022-11-16T22:14:25.536Z,596.97
2022-11-16T22:19:27.482Z,576.83
2022-11-16T22:24:29.403Z,600.10
2022-11-16T22:29:31.442Z,527.20
2022-11-16T22:34:33.388Z,539.88
2022-11-16T22:39:36.699Z,615.63
2022-11-16T22:44:38.579Z,583.95
2022-11-16T22:49:40.619Z,611.20
2022-11-16T22:54:42.706Z,562.92
2022-11-16T22:59:44.658Z,529.55
2022-11-16T23:04:46.596Z,545.92
2022-11-16T23:09:48.491Z,532.35
2022-11-16T23:15:09.167Z,586.20
2022-11-16T23:20:29.627Z,536.00
2022-11-16T23:25:51.120Z,621.03
2022-11-16T23:30:53.040Z,516.15
2022-11-16T23:35:54.905Z,519.65
2022-11-16T23:40:56.874Z,526.50
2022-11-16T23:45:58.855Z,522.25
2022-11-16T23:51:00.760Z,546.20
2022-11-16T23:56:05.988Z,530.58
